• Join FlightAware (Why Join?)
  • Login
  • US Flag 
10:43PM EDT


 

Airport Tracker/Info


-or-


 

Live Flight TrackerFlight Track Log ✈ N629SA ✈ 25-Feb-2014 ✈ KAPF - KAPF

Flight Track Log - Related Links

Times and Time Zones

All times are in EST time to prevent confusion due to time zone crossing. See the N629SA flight status page for this flight to view local times or setup timezone preferences in your user account.

Time Position Orientation Groundspeed Altitude Reporting Facility
EST Latitude Longitude Course Direction KTS MPH feet Rate Location/Type
09:15AM 26.1524 -81.7756 42° Northeast  Level Estimated
09:16AM 26.1524 -81.7756 53° Northeast  Level Estimated
09:17AM 26.1524 -81.7756 45° Northeast  Level Estimated
09:18AM 26.1524 -81.7756 46° Northeast  Level Estimated
09:19AM 26.1524 -81.7756 46° Northeast  Level Estimated
09:19AM 26.3697 -81.4475 46° Northeast 167 192 9,000  Level Miami Center
09:20AM 26.1524 -81.7756 46° Northeast  Level Estimated
09:20AM 26.3858 -81.3972 70° East 173 199 9,000  Level Miami Center
09:21AM 26.1524 -81.7756 46° Northeast  Level Estimated
09:21AM 26.4019 -81.3469 70° East 173 199 9,000  Level Miami Center
09:22AM 26.1524 -81.7756 46° Northeast  Level Estimated
09:22AM 26.4203 -81.2989 67° East 168 193 9,000  Level Miami Center
09:23AM 26.1524 -81.7756 46° Northeast  Level Estimated
09:23AM 26.4386 -81.2417 70° East 168 193 9,000  Level Miami Center
09:24AM 26.4567 -81.1936 67° East 168 193 9,000  Level Miami Center
09:25AM 26.4750 -81.1431 68° East 168 193 9,000  Level Miami Center
09:26AM 26.4806 -81.0900 83° East 168 193 9,000  Level Miami Center
09:27AM 26.4800 -81.0389 91° East 168 193 9,000  Level Miami Center
09:28AM 26.4839 -80.9764 86° East 173 199 9,000  Level Miami Center
09:29AM 26.4831 -80.9300 91° East 178 205 9,000 -180 Level Miami Center
09:30AM 26.4892 -80.8653 84° East 178 205 8,700 -420 Descending Miami Center
09:31AM 26.4928 -80.8119 86° East 178 205 8,200 -540 Descending Miami Center
09:32AM 26.4967 -80.7447 86° East 184 212 7,700 -480 Descending Miami Center
09:33AM 26.5000 -80.6939 86° East 184 212 7,300 -540 Descending Miami Center
09:34AM 26.5039 -80.6289 86° East 184 212 6,700 -540 Descending Miami Center
09:35AM 26.5072 -80.5756 86° East 184 212 6,300 -480 Descending Miami Center
09:36AM 26.5131 -80.5133 84° East 184 212 5,800 -540 Descending Miami Center
09:37AM 26.5183 -80.4622 83° East 179 206 5,300 -420 Descending Miami Center
09:38AM 26.5261 -80.3997 82° East 179 206 5,000 -180 Descending Miami Center
09:39AM 26.5294 -80.3536 85° East 179 206 5,000 -60 Level Miami Center
09:40AM 26.5328 -80.2956 86° East 174 200 4,900 -300 Descending Miami Center
09:41AM 26.5361 -80.2447 86° East 179 206 4,500 -420 Descending Miami Center
09:41AM 26.5361 -80.2469 270° West 168 193 4,500 -600 Level Miami Center
09:42AM 26.5008 -80.2344 162° South 162 186 4,000 -540 Descending Miami Center
09:43AM 26.4564 -80.2564 204° Southwest 160 184 3,500 -480 Descending Miami Center
09:44AM 26.4164 -80.2736 201° Southwest 161 185 3,100 -300 Descending Miami Center
09:45AM 26.3742 -80.2911 200° South 149 171 3,000 -60 Descending Miami Center
09:46AM 26.3319 -80.3083 200° South 145 167 3,000 -180 Level Miami Center
09:47AM 26.2944 -80.3142 188° South 158 182 2,700 -420 Descending Miami Center
09:48AM 26.2744 -80.2742 119° Southeast 167 192 2,300 -360 Descending Miami Center
09:49AM 26.2797 -80.2211 84° East 141 162 2,000 -240 Descending Miami Center
09:50AM 26.2992 -80.1914 54° Northeast 118 136 1,800 -300 Descending Miami Center
09:51AM 26.3228 -80.1667 43° Northeast 112 129 1,400 -540 Descending Miami Center
09:52AM 26.3464 -80.1442 40° Northeast 108 124 800 -600 Descending Miami Center
09:53AM 26.3656 -80.1192 49° Northeast 112 129 200 -180 Descending Miami Center
09:54AM 26.3850 -80.1011 40° Northeast 87 100 500 660 Climbing Miami Center
09:56AM 26.4128 -80.0672 48° Northeast 100 115 2,000 600 Climbing Miami Center
09:57AM 26.4486 -80.0542 18° North 148 170 2,100  Climbing Miami Center
09:58AM 26.4772 -80.0758 326° Northwest 131 151 2,000 -60 Descending Miami Center
09:59AM 26.4828 -80.1131 279° West 132 152 2,000  Level Miami Center
10:00AM 26.4881 -80.1572 278° West 131 151 2,000  Level Miami Center
10:01AM 26.4933 -80.1947 279° West 129 148 2,000  Level Miami Center
10:02AM 26.5031 -80.2367 285° West 135 155 2,000 300 Level Miami Center
10:03AM 26.5103 -80.2833 280° West 135 155 2,700 600 Climbing Miami Center
10:04AM 26.5156 -80.3183 280° West 121 139 3,300 720 Climbing Miami Center
10:05AM 26.5211 -80.3556 279° West 121 139 4,100 720 Climbing Miami Center
10:06AM 26.5244 -80.3906 276° West 118 136 4,800 540 Climbing Miami Center
10:07AM 26.5233 -80.4300 268° West 124 143 5,300 600 Climbing Miami Center
10:08AM 26.5244 -80.4719 272° West 117 135 6,100 660 Climbing Miami Center
10:09AM 26.5300 -80.5044 281° West 115 132 6,800 720 Climbing Miami Center
10:09AM 26.5317 -80.5183 278° West 142 163 7,100 780 Climbing Miami Center
10:10AM 26.5353 -80.5417 280° West 115 132 7,600 600 Climbing Miami Center
10:10AM 26.5392 -80.5489 301° West 124 143 7,700 360 Climbing Miami Center
10:11AM 26.5425 -80.5792 277° West 117 135 8,000 300 Climbing Miami Center
10:11AM 26.5464 -80.5908 290° West 124 143 8,000  Level Miami Center
10:12AM 26.5478 -80.6258 273° West 141 162 8,000  Level Miami Center
10:12AM 26.5517 -80.6306 313° West 129 148 8,000  Level Miami Center
10:13AM 26.5550 -80.6656 276° West 140 161 8,000 -120 Level Miami Center
10:13AM 26.5569 -80.6747 283° West 144 166 7,900 -120 Descending Miami Center
10:14AM 26.5642 -80.7144 281° West 139 160 7,900  Level Miami Center
10:14AM 26.5642 -80.7144 281° West 144 166 7,900  Level Miami Center
10:15AM 26.5611 -80.7469 264° West 139 160 7,900  Level Miami Center
10:15AM 26.5631 -80.7564 283° West 144 166 7,900 -120 Level Miami Center
10:16AM 26.5494 -80.7953 249° West 139 160 7,800 -300 Descending Miami Center
10:16AM 26.5533 -80.8047 295° West 147 169 7,600 -480 Descending Miami Center
10:17AM 26.5442 -80.8369 252° West 150 173 7,400 -420 Descending Miami Center
10:17AM 26.5461 -80.8464 283° West 147 169 7,200 -480 Descending Miami Center
10:18AM 26.5364 -80.8878 255° West 153 176 6,900 -420 Descending Miami Center
10:18AM 26.5383 -80.8947 287° West 147 169 6,800 -540 Descending Miami Center
10:19AM 26.5267 -80.9383 253° West 149 171 6,400 -540 Descending Miami Center
10:19AM 26.5331 -80.9364 15° North 154 177 6,300 -540 Descending Miami Center
10:20AM 26.5192 -80.9847 252° West 149 171 5,800 -540 Descending Miami Center
10:20AM 26.5233 -80.9847 360° North 154 177 5,800 -540 Level Miami Center
10:21AM 26.5117 -81.0239 252° West 149 171 5,400 -540 Descending Miami Center
10:21AM 26.5139 -81.0286 298° West 154 177 5,300 -480 Descending Miami Center
10:22AM 26.5019 -81.0722 253° West 151 174 4,900 -420 Descending Miami Center
10:22AM 26.5061 -81.0722 360° North 159 183 4,900 -540 Level Miami Center
10:23AM 26.4944 -81.1206 255° West 150 173 4,400 -540 Descending Miami Center
10:23AM 26.4986 -81.1161 44° Northeast 159 183 4,400 -480 Level Miami Center
10:24AM 26.4889 -81.1692 258° West 159 183 3,900 -420 Descending Miami Center
10:24AM 26.4867 -81.1714 222° Southwest 151 174 4,000  Climbing Miami Center
10:25AM 26.4794 -81.2036 256° West 148 170 3,900 -120 Descending Miami Center
10:25AM 26.4814 -81.2106 287° West 154 177 3,900  Level Miami Center
10:26AM 26.4694 -81.2542 253° West 142 163 3,900  Level Miami Center
10:26AM 26.4736 -81.2544 357° North 154 177 3,900  Level Miami Center
10:27AM 26.4642 -81.2958 256° West 137 158 3,900  Level Miami Center
10:27AM 26.4661 -81.2958 360° North 144 166 3,900  Level Miami Center
10:28AM 26.4586 -81.3375 259° West 144 166 3,900  Level Miami Center
10:29AM 26.4514 -81.3742 258° West 138 159 3,900  Level Miami Center
10:29AM 26.4511 -81.3811 267° West 144 166 3,900  Level Miami Center
10:30AM 26.4314 -81.4083 231° Southwest 140 161 3,900 60 Level Miami Center
10:30AM 26.4231 -81.4103 192° South 139 160 4,000  Climbing Miami Center
10:32AM 26.3847 -81.4342 209° Southwest 164 189 3,900 -60 Descending Miami Center
10:32AM 26.3506 -81.4561 210° Southwest 154 177 3,900  Level Miami Center
10:33AM 26.3122 -81.4800 209° Southwest 151 174 3,900  Level Miami Center
10:35AM 26.2756 -81.5158 221° Southwest 148 170 3,900  Level Miami Center
10:36AM 26.2519 -81.5381 220° Southwest 148 170 3,900  Level Miami Center
10:37AM 26.2217 -81.5692 223° Southwest 146 168 3,900  Level Miami Center
10:38AM 26.1808 -81.6022 216° Southwest 148 170 3,900  Level Miami Center
10:39AM 26.1506 -81.6336 223° Southwest 150 173 3,900  Level Miami Center
10:39AM 26.1247 -81.6578 220° Southwest 148 170 3,900  Level Miami Center
10:41AM 26.0925 -81.6867 219° Southwest 144 166 3,900  Level Miami Center
10:42AM 26.0581 -81.7222 223° Southwest 147 169 3,900  Level Miami Center
10:43AM 26.0322 -81.7442 217° Southwest 147 169 3,900 -420 Level Miami Center
10:44AM 25.9975 -81.7822 225° Southwest 147 169 3,100 -1,020 Descending Miami Center
10:45AM 25.9964 -81.8192 268° West 163 188 1,900 -1,200 Descending Miami Center
10:47AM 26.0844 -81.7891 17° North  Level FlightAware Approximate
10:54AM 26.1500 -81.7667 North  Level FlightAware Approximate
10:55AM 26.1524 -81.7756 North  Level Estimated
10:56AM 26.1524 -81.7756 North  Level Estimated